createdAt,value
2023-03-25T00:08:29.743Z,99984.95
2023-03-25T00:12:59.620Z,99981.23
2023-03-25T00:43:20.920Z,99996.94
2023-03-25T00:47:42.760Z,100003.48
2023-03-25T00:52:11.970Z,100009.69
2023-03-25T00:56:40.745Z,100007.85
2023-03-25T01:14:00.650Z,100008.65
2023-03-25T01:18:29.924Z,100005.54
2023-03-25T01:22:58.743Z,100003.61
2023-03-25T01:27:29.036Z,100003.55
2023-03-25T01:31:56.729Z,100000.52
2023-03-25T02:02:19.199Z,99997.89
2023-03-25T02:06:47.910Z,99998.15
2023-03-25T02:33:47.109Z,99989.27
2023-03-25T02:38:03.013Z,99984.19
2023-03-25T02:42:31.671Z,99983.36
2023-03-25T02:46:52.970Z,99974.20
2023-03-25T02:51:15.712Z,99973.33
2023-03-25T02:55:45.434Z,99969.17
2023-03-25T03:17:37.989Z,99934.55
2023-03-25T03:22:12.912Z,99930.09
2023-03-25T03:26:47.795Z,99932.33
2023-03-25T03:39:51.220Z,99923.23
2023-03-25T03:44:23.260Z,99919.98
2023-03-25T03:49:01.231Z,99912.92
2023-03-25T04:01:59.583Z,99908.33
2023-03-25T04:06:28.833Z,99907.02
2023-03-25T04:11:00.722Z,99904.45
2023-03-25T04:15:18.408Z,99899.46
2023-03-25T04:19:48.147Z,99896.09
2023-03-25T04:45:40.863Z,99904.31
2023-03-25T04:49:58.907Z,99906.27
2023-03-25T04:57:34.990Z,99905.95
2023-03-25T05:01:38.799Z,99911.65
2023-03-25T05:06:04.276Z,99910.87
2023-03-25T05:31:51.870Z,99918.51
2023-03-25T05:36:03.092Z,99914.36
2023-03-25T05:59:47.710Z,99925.19
2023-03-25T06:03:53.847Z,99927.17
2023-03-25T06:07:20.546Z,99929.19
2023-03-25T06:11:21.743Z,99924.29
2023-03-25T06:15:40.768Z,99922.69
2023-03-25T06:36:33.878Z,99931.27
2023-03-25T06:40:34.798Z,99936.14
2023-03-25T06:44:56.644Z,99935.08
2023-03-25T06:48:56.429Z,99928.40
2023-03-25T06:52:51.122Z,99924.03
2023-03-25T06:56:36.607Z,99917.48
2023-03-25T07:00:54.706Z,99918.27
2023-03-25T07:05:03.878Z,99917.05
2023-03-25T07:22:06.281Z,99910.27
2023-03-25T07:26:36.125Z,99917.65
2023-03-25T07:31:05.913Z,99918.69
2023-03-25T07:35:26.949Z,99922.20
2023-03-25T08:08:48.258Z,99941.05
2023-03-25T08:13:17.651Z,99937.09
2023-03-25T08:17:10.260Z,99940.06
2023-03-25T08:20:43.186Z,99944.89
2023-03-25T08:24:24.744Z,99948.20
2023-03-25T08:49:08.814Z,99942.38
2023-03-25T08:53:37.724Z,99944.48
2023-03-25T08:57:51.425Z,99946.77
2023-03-25T09:02:10.521Z,99948.67
2023-03-25T09:06:11.134Z,99950.73
2023-03-25T09:10:41.379Z,99949.64
2023-03-25T09:39:46.652Z,99944.70
2023-03-25T09:44:01.664Z,99935.82
2023-03-25T09:48:14.593Z,99935.60
2023-03-25T09:52:45.102Z,99933.94
2023-03-25T09:57:21.128Z,99928.39
2023-03-25T10:01:33.753Z,99937.94
2023-03-25T10:06:10.705Z,99937.98
2023-03-25T11:06:38.090Z,99887.98
2023-03-25T11:11:15.911Z,99889.70
2023-03-25T11:15:22.080Z,99892.52
2023-03-25T11:19:39.905Z,99894.55
2023-03-25T11:24:08.278Z,99895.02
2023-03-25T11:33:11.966Z,99882.14
2023-03-25T11:41:17.156Z,99871.07
2023-03-25T11:45:57.822Z,99869.37
2023-03-25T12:28:47.724Z,99836.33
2023-03-25T12:33:17.749Z,99834.45
2023-03-25T12:37:49.207Z,99828.52
2023-03-25T12:42:03.583Z,99823.39
2023-03-25T12:46:47.498Z,99816.39
2023-03-25T12:51:13.116Z,99822.73
2023-03-25T13:55:40.923Z,99824.63
2023-03-25T14:00:28.849Z,99823.35
2023-03-25T14:05:21.801Z,99819.34
2023-03-25T14:22:16.379Z,99829.30
2023-03-25T14:26:31.753Z,99831.38
2023-03-25T14:30:30.793Z,99839.41
2023-03-25T14:35:03.278Z,99826.85
2023-03-25T14:39:08.060Z,99822.45
2023-03-25T14:43:28.180Z,99831.30
2023-03-25T14:47:56.576Z,99836.05
2023-03-25T15:31:29.574Z,99889.77
2023-03-25T15:35:48.162Z,99876.90
2023-03-25T15:44:58.445Z,99884.08
2023-03-25T15:49:18.955Z,99881.33
2023-03-25T15:53:42.560Z,99878.44
2023-03-25T15:57:24.299Z,99872.83
2023-03-25T16:01:38.341Z,99876.50
2023-03-25T16:05:49.044Z,99876.66
2023-03-25T16:09:40.660Z,99876.13
2023-03-25T16:13:36.975Z,99875.41
2023-03-25T16:17:18.067Z,99878.30
2023-03-25T16:21:01.302Z,99874.15
2023-03-25T16:25:18.638Z,99877.89
2023-03-25T17:21:22.663Z,99897.92
2023-03-25T17:25:41.247Z,99893.52
2023-03-25T17:30:03.145Z,99892.07
2023-03-25T17:56:16.247Z,99876.94
2023-03-25T18:00:45.326Z,99869.74
2023-03-25T18:05:15.522Z,99876.13
2023-03-25T18:27:06.087Z,99865.50
2023-03-25T18:31:30.505Z,99863.58
2023-03-25T18:36:00.338Z,99892.33
2023-03-25T18:40:05.972Z,99903.20
2023-03-25T19:05:06.371Z,99920.81
2023-03-25T19:09:11.010Z,99918.14
2023-03-25T19:13:11.591Z,99911.66
2023-03-25T19:17:40.423Z,99907.96
2023-03-25T19:22:09.699Z,99909.04
2023-03-25T19:25:51.856Z,99909.50
2023-03-25T19:29:39.746Z,99903.34
2023-03-25T19:34:09.412Z,99897.48
2023-03-25T20:00:10.224Z,99865.11
2023-03-25T20:04:11.991Z,99865.11
2023-03-25T20:08:30.736Z,99860.84
2023-03-25T20:12:44.620Z,99855.13
2023-03-25T20:16:56.323Z,99846.89
2023-03-25T20:34:08.352Z,99832.98
2023-03-25T20:38:20.817Z,99833.23
2023-03-25T20:42:12.810Z,99827.23
2023-03-25T21:12:32.820Z,99816.36
2023-03-25T21:17:10.816Z,99815.43
2023-03-25T21:21:39.591Z,99811.03
2023-03-25T21:25:55.193Z,99808.59
2023-03-25T21:30:13.399Z,99805.55
2023-03-25T21:51:54.527Z,99787.91
2023-03-25T21:56:26.226Z,99785.38
2023-03-25T22:17:51.295Z,99774.86
2023-03-25T22:22:05.037Z,99774.20
2023-03-25T22:26:13.940Z,99771.27
2023-03-25T22:30:43.745Z,99765.58
2023-03-25T22:35:04.929Z,99767.48
2023-03-25T22:52:07.351Z,99758.70
2023-03-25T22:56:34.123Z,99754.85
2023-03-25T23:00:56.187Z,99747.14
2023-03-25T23:05:14.922Z,99748.75
2023-03-25T23:13:52.645Z,99750.79
2023-03-25T23:39:50.091Z,99757.25
2023-03-25T23:44:11.681Z,99752.04
2023-03-25T23:48:40.475Z,99745.45
2023-03-25T23:53:03.424Z,99751.42
2023-03-25T23:57:33.057Z,99746.27
